Terminal Aerodrome Forecast
Issued by NWS Boston, MA

Home | Current Version | Previous Version | Text Only | Print | Product List | Glossary On
Versions: 1 2 3 4 5 6 7 8 9 10 11 12 13 14 15 16 17 18 19 20 21 22 23 24
000
FTUS41 KBOX 232331
TAFPVD
TAF
KPVD 232331Z 2400/2424 16005KT P6SM BKN200
     FM240600 VRB03KT P6SM -RA OVC060
     FM241000 05004KT P6SM -RA OVC015
     FM241600 05009KT P6SM BKN035=

USA.gov is the U.S. government's official web portal to all federal, state and local government web resources and services.